createdAt,value
2022-11-24T00:01:21.589Z,3.83
2022-11-24T00:04:03.977Z,3.35
2022-11-24T00:06:32.813Z,3.88
2022-11-24T00:08:59.745Z,3.92
2022-11-24T00:11:31.679Z,3.78
2022-11-24T00:13:59.295Z,3.85
2022-11-24T00:16:31.264Z,4.65
2022-11-24T00:19:00.304Z,3.95
2022-11-24T00:21:28.969Z,3.65
2022-11-24T00:23:55.896Z,4.82
2022-11-24T00:26:31.742Z,4.45
2022-11-24T00:29:02.378Z,3.85
2022-11-24T00:31:35.227Z,3.85
2022-11-24T00:34:07.493Z,3.78
2022-11-24T00:36:35.888Z,3.72
2022-11-24T00:39:06.209Z,3.40
2022-11-24T00:41:33.488Z,3.20
2022-11-24T00:44:00.925Z,3.13
2022-11-24T00:46:28.545Z,3.80
2022-11-24T00:48:55.759Z,3.42
2022-11-24T00:51:24.776Z,3.45
2022-11-24T00:53:53.199Z,3.47
2022-11-24T00:56:20.052Z,2.92
2022-11-24T00:58:46.690Z,3.47
2022-11-24T01:01:16.754Z,4.28
2022-11-24T01:03:44.270Z,3.20
2022-11-24T01:06:13.735Z,3.60
2022-11-24T01:08:41.109Z,4.15
2022-11-24T01:11:23.421Z,3.28
2022-11-24T01:13:57.694Z,3.53
2022-11-24T01:16:34.308Z,3.55
2022-11-24T01:19:01.483Z,3.13
2022-11-24T01:21:28.227Z,3.55
2022-11-24T01:23:54.983Z,4.13
2022-11-24T01:26:22.394Z,3.65
2022-11-24T01:28:53.900Z,2.85
2022-11-24T01:31:22.702Z,4.72
2022-11-24T01:33:49.945Z,3.78
2022-11-24T01:36:16.706Z,3.58
2022-11-24T01:38:43.428Z,3.72
2022-11-24T01:41:16.720Z,3.60
2022-11-24T01:43:44.889Z,3.72
2022-11-24T01:46:24.168Z,3.38
2022-11-24T01:49:09.090Z,3.35
2022-11-24T01:51:39.728Z,3.58
2022-11-24T01:54:15.677Z,4.20
2022-11-24T01:56:46.442Z,3.17
2022-11-24T01:59:17.240Z,3.45
2022-11-24T02:01:44.153Z,3.00
2022-11-24T02:04:14.187Z,3.65
2022-11-24T02:06:43.728Z,3.08
2022-11-24T02:09:19.798Z,3.88
2022-11-24T02:11:47.329Z,3.42
2022-11-24T02:14:17.722Z,3.53
2022-11-24T02:16:49.751Z,3.33
2022-11-24T02:19:39.965Z,3.72
2022-11-24T02:22:30.980Z,3.30
2022-11-24T02:25:40.322Z,3.03
2022-11-24T02:28:22.013Z,2.80
2022-11-24T02:30:50.749Z,4.95
2022-11-24T02:33:18.841Z,3.65
2022-11-24T02:35:46.490Z,3.58
2022-11-24T02:38:13.773Z,3.67
2022-11-24T02:40:44.424Z,3.47
2022-11-24T02:43:16.910Z,3.15
2022-11-24T02:45:43.535Z,3.22
2022-11-24T02:48:11.186Z,3.88
2022-11-24T02:50:37.924Z,2.85
2022-11-24T02:53:04.552Z,3.25
2022-11-24T02:55:31.229Z,3.60
2022-11-24T02:57:57.829Z,3.45
2022-11-24T03:00:24.559Z,3.95
2022-11-24T03:02:51.247Z,2.78
2022-11-24T03:05:18.131Z,3.90
2022-11-24T03:07:44.865Z,3.58
2022-11-24T03:10:11.627Z,3.35
2022-11-24T03:12:38.216Z,3.40
2022-11-24T03:15:06.240Z,3.63
2022-11-24T03:17:32.916Z,4.15
2022-11-24T03:20:04.780Z,3.90
2022-11-24T03:22:31.926Z,3.67
2022-11-24T03:24:59.198Z,2.92
2022-11-24T03:27:26.165Z,3.78
2022-11-24T03:29:52.850Z,4.05
2022-11-24T03:32:19.855Z,3.95
2022-11-24T03:34:46.523Z,4.05
2022-11-24T03:37:14.645Z,3.45
2022-11-24T03:39:42.401Z,3.75
2022-11-24T03:42:09.114Z,4.28
2022-11-24T03:44:35.975Z,3.83
2022-11-24T03:47:02.750Z,3.22
2022-11-24T03:49:29.377Z,4.20
2022-11-24T03:51:56.084Z,3.25
2022-11-24T03:54:23.013Z,3.55
2022-11-24T03:56:49.685Z,3.85
2022-11-24T03:59:16.940Z,3.53
2022-11-24T04:01:43.644Z,4.22
2022-11-24T04:04:13.810Z,4.15
2022-11-24T04:06:40.506Z,3.90
2022-11-24T04:09:07.993Z,3.40
2022-11-24T04:11:53.209Z,4.15
2022-11-24T04:14:20.919Z,4.28
2022-11-24T04:16:47.487Z,3.10
2022-11-24T04:19:14.033Z,3.88
2022-11-24T04:21:41.626Z,3.85
2022-11-24T04:24:08.150Z,3.08
2022-11-24T04:26:36.338Z,3.72
2022-11-24T04:29:02.963Z,3.45
2022-11-24T04:31:29.543Z,3.90
2022-11-24T04:33:56.097Z,3.50
2022-11-24T04:36:22.646Z,4.55
2022-11-24T04:39:23.457Z,3.45
2022-11-24T04:41:35.665Z,3.50
2022-11-24T04:44:02.193Z,3.65
2022-11-24T04:46:28.775Z,3.85
2022-11-24T04:48:55.384Z,4.15
2022-11-24T04:51:22.926Z,3.78
2022-11-24T04:53:49.458Z,3.40
2022-11-24T04:56:16.945Z,3.95
2022-11-24T04:58:43.444Z,3.63
2022-11-24T05:01:10.024Z,4.30
2022-11-24T05:03:36.687Z,4.30
2022-11-24T05:06:03.652Z,2.30
2022-11-24T05:08:30.115Z,2.55
2022-11-24T05:10:56.663Z,1.70
2022-11-24T05:13:23.349Z,2.33
2022-11-24T05:15:49.866Z,1.60
2022-11-24T05:18:16.572Z,1.45
2022-11-24T05:20:44.729Z,1.38
2022-11-24T05:23:12.076Z,1.05
2022-11-24T05:25:39.731Z,0.80
2022-11-24T05:28:11.869Z,0.98
2022-11-24T05:30:40.554Z,1.10
2022-11-24T05:33:18.875Z,1.00
2022-11-24T05:35:49.155Z,1.13
2022-11-24T05:38:18.290Z,1.00
2022-11-24T05:40:45.029Z,1.75
2022-11-24T05:43:12.375Z,1.50
2022-11-24T05:45:39.272Z,1.60
2022-11-24T05:48:12.431Z,1.50
2022-11-24T05:50:39.445Z,1.40
2022-11-24T05:53:08.119Z,2.53
2022-11-24T05:55:35.177Z,2.17
2022-11-24T05:58:03.974Z,2.10
2022-11-24T06:00:31.789Z,1.98
2022-11-24T06:02:59.317Z,1.83
2022-11-24T06:05:27.233Z,2.45
2022-11-24T06:07:54.445Z,2.10
2022-11-24T06:10:23.868Z,1.88
2022-11-24T06:12:50.514Z,2.05
2022-11-24T06:15:17.402Z,2.65
2022-11-24T06:17:44.148Z,2.25
2022-11-24T06:20:11.499Z,2.20
2022-11-24T06:22:38.033Z,2.55
2022-11-24T06:25:05.023Z,1.88
2022-11-24T06:27:32.317Z,2.25
2022-11-24T06:29:58.838Z,3.00
2022-11-24T06:32:25.438Z,1.77
2022-11-24T06:34:51.977Z,2.45
2022-11-24T06:37:18.560Z,2.58
2022-11-24T06:39:45.036Z,2.63
2022-11-24T06:42:11.626Z,1.92
2022-11-24T06:44:38.098Z,3.00
2022-11-24T06:47:04.912Z,2.60
2022-11-24T06:49:32.391Z,2.22
2022-11-24T06:51:58.941Z,2.60
2022-11-24T06:54:25.449Z,3.53
2022-11-24T06:56:59.470Z,2.85
2022-11-24T06:59:26.542Z,3.55
2022-11-24T07:01:53.324Z,3.38
2022-11-24T07:04:20.166Z,3.13
2022-11-24T07:06:46.756Z,2.78
2022-11-24T07:09:13.605Z,3.40
2022-11-24T07:11:40.832Z,3.72
2022-11-24T07:14:07.673Z,3.03
2022-11-24T07:16:35.699Z,3.22
2022-11-24T07:19:02.779Z,3.92
2022-11-24T07:21:30.780Z,3.33
2022-11-24T07:23:58.077Z,3.20
2022-11-24T07:26:25.269Z,2.80
2022-11-24T07:28:52.188Z,3.50
2022-11-24T07:31:21.448Z,2.42
2022-11-24T07:33:52.644Z,4.18
2022-11-24T07:36:19.550Z,3.03
2022-11-24T07:38:46.186Z,2.53
2022-11-24T07:41:17.869Z,3.13
2022-11-24T07:43:44.824Z,3.27
2022-11-24T07:46:14.455Z,3.67
2022-11-24T07:48:41.047Z,3.33
2022-11-24T07:51:08.265Z,3.40
2022-11-24T07:53:35.694Z,3.78
2022-11-24T07:56:04.104Z,2.75
2022-11-24T07:58:33.352Z,2.38
2022-11-24T08:01:08.114Z,2.47
2022-11-24T08:03:35.846Z,2.83
2022-11-24T08:08:49.334Z,2.58
2022-11-24T08:11:17.754Z,2.63
2022-11-24T08:13:44.560Z,2.72
2022-11-24T08:16:17.816Z,2.05
2022-11-24T08:18:48.982Z,2.42
2022-11-24T08:21:16.776Z,3.70
2022-11-24T08:23:43.283Z,2.47
2022-11-24T08:26:15.688Z,2.88
2022-11-24T08:28:42.562Z,2.17
2022-11-24T08:31:12.411Z,2.00
2022-11-24T08:33:39.476Z,1.45
2022-11-24T08:36:17.359Z,1.70
2022-11-24T08:38:44.780Z,1.98
2022-11-24T08:41:14.589Z,1.88
2022-11-24T08:43:41.230Z,1.90
2022-11-24T08:46:10.657Z,2.17
2022-11-24T08:48:37.523Z,1.83
2022-11-24T08:51:12.082Z,2.10
2022-11-24T08:53:39.660Z,3.42
2022-11-24T08:56:07.317Z,2.47
2022-11-24T08:58:34.248Z,2.00
2022-11-24T09:01:04.937Z,1.73
2022-11-24T09:03:31.743Z,2.50
2022-11-24T09:05:58.296Z,2.25
2022-11-24T09:08:24.883Z,1.80
2022-11-24T09:10:51.622Z,1.67
2022-11-24T09:13:18.181Z,2.53
2022-11-24T09:15:44.628Z,1.88
2022-11-24T09:18:11.168Z,1.90
2022-11-24T09:20:38.725Z,2.13
2022-11-24T09:23:05.498Z,2.05
2022-11-24T09:25:33.128Z,1.90
2022-11-24T09:27:59.944Z,1.83
2022-11-24T09:30:26.945Z,2.38
2022-11-24T09:32:56.481Z,1.88
2022-11-24T09:35:23.424Z,1.60
2022-11-24T09:37:49.872Z,2.47
2022-11-24T09:40:17.408Z,1.63
2022-11-24T09:42:58.071Z,2.10
2022-11-24T09:46:04.030Z,2.17
2022-11-24T09:48:35.817Z,2.22
2022-11-24T09:51:04.323Z,2.00
2022-11-24T09:53:53.743Z,2.35
2022-11-24T09:56:22.937Z,2.28
2022-11-24T09:58:58.875Z,2.40
2022-11-24T10:01:33.550Z,2.53
2022-11-24T10:04:06.401Z,2.80
2022-11-24T10:06:48.055Z,1.92
2022-11-24T10:10:19.758Z,2.20
2022-11-24T10:13:08.189Z,2.80
2022-11-24T10:16:04.418Z,2.38
2022-11-24T10:18:45.364Z,2.30
2022-11-24T10:21:42.653Z,2.10
2022-11-24T10:24:32.162Z,2.60
2022-11-24T10:27:03.951Z,2.20
2022-11-24T10:29:40.848Z,2.95
2022-11-24T10:32:24.129Z,2.83
2022-11-24T10:34:50.945Z,3.05
2022-11-24T10:37:28.410Z,3.05
2022-11-24T10:40:33.500Z,2.90
2022-11-24T10:43:00.351Z,2.60
2022-11-24T10:45:28.337Z,3.63
2022-11-24T10:47:55.161Z,2.80
2022-11-24T10:50:32.198Z,3.42
2022-11-24T10:53:26.588Z,3.33
2022-11-24T10:55:56.226Z,3.28
2022-11-24T10:58:38.067Z,3.22
2022-11-24T11:01:14.151Z,3.45
2022-11-24T11:03:48.866Z,3.45
2022-11-24T11:06:21.940Z,2.95
2022-11-24T11:08:48.687Z,3.58
2022-11-24T11:11:29.057Z,3.40
2022-11-24T11:14:05.018Z,3.05
2022-11-24T11:16:51.848Z,4.13
2022-11-24T11:20:00.274Z,3.45
2022-11-24T11:22:31.022Z,3.10
2022-11-24T11:25:09.734Z,4.28
2022-11-24T11:27:37.537Z,3.92
2022-11-24T11:36:11.055Z,3.22
2022-11-24T11:38:40.319Z,3.70
2022-11-24T11:41:14.356Z,3.80
2022-11-24T11:43:43.384Z,3.03
2022-11-24T11:46:13.164Z,3.67
2022-11-24T11:48:44.765Z,3.10
2022-11-24T11:51:23.939Z,2.95
2022-11-24T11:53:57.770Z,3.38
2022-11-24T11:56:28.085Z,3.45
2022-11-24T11:59:38.004Z,3.55
2022-11-24T12:02:33.670Z,4.40
2022-11-24T12:05:05.162Z,3.65
2022-11-24T12:08:10.753Z,3.63
2022-11-24T12:10:45.915Z,3.97
2022-11-24T12:13:40.807Z,3.40
2022-11-24T12:16:45.849Z,2.90
2022-11-24T12:19:24.423Z,4.13
2022-11-24T12:22:04.171Z,2.92
2022-11-24T12:24:42.849Z,3.92
2022-11-24T12:27:23.171Z,3.42
2022-11-24T12:30:04.536Z,3.83
2022-11-24T12:32:58.258Z,4.10
2022-11-24T12:35:46.310Z,3.55
2022-11-24T12:38:29.617Z,3.33
2022-11-24T12:44:04.843Z,2.90
2022-11-24T12:46:54.741Z,2.67
2022-11-24T12:49:37.018Z,2.50
2022-11-24T12:52:14.503Z,3.75
2022-11-24T12:54:41.208Z,2.78
2022-11-24T12:57:16.766Z,2.95
2022-11-24T13:00:06.750Z,4.07
2022-11-24T13:02:55.193Z,3.53
2022-11-24T13:06:01.029Z,3.00
2022-11-24T13:08:28.908Z,3.70
2022-11-24T13:11:21.240Z,3.17
2022-11-24T13:14:15.399Z,2.47
2022-11-24T13:17:21.700Z,3.80
2022-11-24T13:19:40.783Z,3.40
2022-11-24T13:22:07.163Z,3.67
2022-11-24T13:24:39.165Z,3.28
2022-11-24T13:27:26.495Z,3.83
2022-11-24T13:29:54.056Z,3.28
2022-11-24T13:32:23.493Z,3.00
2022-11-24T13:34:54.673Z,2.53
2022-11-24T13:37:33.610Z,3.72
2022-11-24T13:40:11.562Z,3.15
2022-11-24T13:42:57.079Z,3.13
2022-11-24T13:45:38.809Z,2.63
2022-11-24T13:48:22.284Z,3.25
2022-11-24T13:50:49.391Z,2.60
2022-11-24T13:53:49.092Z,2.97
2022-11-24T13:56:15.510Z,3.30
2022-11-24T13:58:46.462Z,3.38
2022-11-24T14:01:28.920Z,2.95
2022-11-24T14:04:29.510Z,3.50
2022-11-24T14:06:54.798Z,3.50
2022-11-24T14:09:45.779Z,3.78
2022-11-24T14:12:24.216Z,2.50
2022-11-24T14:14:52.796Z,2.88
2022-11-24T14:17:20.628Z,3.05
2022-11-24T14:19:49.423Z,4.07
2022-11-24T14:22:19.440Z,3.03
2022-11-24T14:24:52.768Z,3.50
2022-11-24T14:27:27.621Z,3.10
2022-11-24T14:29:56.434Z,2.60
2022-11-24T14:32:23.785Z,2.83
2022-11-24T14:34:51.999Z,2.97
2022-11-24T14:37:21.571Z,3.50
2022-11-24T14:39:48.152Z,2.83
2022-11-24T14:42:23.987Z,2.78
2022-11-24T14:45:01.861Z,2.70
2022-11-24T14:47:31.839Z,2.42
2022-11-24T14:50:16.171Z,3.28
2022-11-24T14:52:52.245Z,3.35
2022-11-24T14:55:30.629Z,3.30
2022-11-24T14:57:59.668Z,2.72
2022-11-24T15:00:32.124Z,3.00
2022-11-24T15:05:55.351Z,2.53
2022-11-24T15:08:25.504Z,3.03
2022-11-24T15:10:58.132Z,3.88
2022-11-24T15:16:01.769Z,4.60
2022-11-24T15:18:36.179Z,3.38
2022-11-24T15:21:03.456Z,4.20
2022-11-24T15:23:31.812Z,3.55
2022-11-24T15:26:18.233Z,5.50
2022-11-24T15:28:47.778Z,6.15
2022-11-24T15:31:14.679Z,5.45
2022-11-24T15:33:42.149Z,5.35
2022-11-24T15:36:08.777Z,6.85
2022-11-24T15:38:37.259Z,7.10
2022-11-24T15:41:25.536Z,5.90
2022-11-24T15:43:58.717Z,13.32
2022-11-24T15:46:37.510Z,11.00
2022-11-24T15:49:05.680Z,9.13
2022-11-24T15:51:32.537Z,7.75
2022-11-24T15:54:01.401Z,9.75
2022-11-24T15:56:33.937Z,5.75
2022-11-24T15:59:01.427Z,5.57
2022-11-24T16:01:31.435Z,4.60
2022-11-24T16:03:59.651Z,4.13
2022-11-24T16:06:26.185Z,4.00
2022-11-24T16:08:53.713Z,3.20
2022-11-24T16:11:20.799Z,4.00
2022-11-24T16:13:52.297Z,3.63
2022-11-24T16:16:19.976Z,3.80
2022-11-24T16:18:46.538Z,3.25
2022-11-24T16:21:13.063Z,3.47
2022-11-24T16:23:39.607Z,4.50
2022-11-24T16:26:07.117Z,7.80
2022-11-24T16:28:33.628Z,12.52
2022-11-24T16:31:00.203Z,11.63
2022-11-24T16:33:30.771Z,14.15
2022-11-24T16:35:57.305Z,10.80
2022-11-24T16:38:24.852Z,9.73
2022-11-24T16:40:53.022Z,9.23
2022-11-24T16:43:20.085Z,7.32
2022-11-24T16:45:52.529Z,7.18
2022-11-24T16:48:19.067Z,7.35
2022-11-24T16:50:45.603Z,6.70
2022-11-24T16:53:12.180Z,5.35
2022-11-24T16:55:39.703Z,6.18
2022-11-24T16:58:06.259Z,4.57
2022-11-24T17:00:32.769Z,3.78
2022-11-24T17:02:59.308Z,3.97
2022-11-24T17:05:25.848Z,4.22
2022-11-24T17:07:52.441Z,4.85
2022-11-24T17:10:19.241Z,4.93
2022-11-24T17:12:45.669Z,4.57
2022-11-24T17:18:23.378Z,5.55
2022-11-24T17:20:45.436Z,5.63
2022-11-24T17:23:12.086Z,4.47
2022-11-24T17:25:38.559Z,4.75
2022-11-24T17:28:05.099Z,5.10
2022-11-24T17:30:31.684Z,4.78
2022-11-24T17:32:58.166Z,4.72
2022-11-24T17:35:24.724Z,5.60
2022-11-24T17:37:51.214Z,13.23
2022-11-24T17:40:34.350Z,8.80
2022-11-24T17:43:01.289Z,4.93
2022-11-24T17:45:29.388Z,4.05
2022-11-24T17:48:00.776Z,4.72
2022-11-24T17:50:27.253Z,4.07
2022-11-24T17:52:54.286Z,4.45
2022-11-24T17:55:21.335Z,3.65
2022-11-24T17:57:48.830Z,11.30
2022-11-24T18:00:15.772Z,7.28
2022-11-24T18:02:42.296Z,4.68
2022-11-24T18:05:09.038Z,4.72
2022-11-24T18:07:36.796Z,6.10
2022-11-24T18:10:03.852Z,4.53
2022-11-24T18:12:30.293Z,5.72
2022-11-24T18:14:56.849Z,10.88
2022-11-24T18:17:23.336Z,6.22
2022-11-24T18:19:49.872Z,6.93
2022-11-24T18:22:16.681Z,8.30
2022-11-24T18:24:43.261Z,6.78
2022-11-24T18:27:09.798Z,11.38
2022-11-24T18:29:36.353Z,8.45
2022-11-24T18:32:04.335Z,11.15
2022-11-24T18:34:30.815Z,6.82
2022-11-24T18:36:57.239Z,4.50
2022-11-24T18:39:23.820Z,5.55
2022-11-24T18:41:50.364Z,4.28
2022-11-24T18:44:16.904Z,4.38
2022-11-24T18:46:43.395Z,4.72
2022-11-24T18:49:09.946Z,5.22
2022-11-24T18:51:36.508Z,5.97
2022-11-24T18:54:05.156Z,4.90
2022-11-24T18:56:31.720Z,5.65
2022-11-24T18:58:58.291Z,6.55
2022-11-24T19:01:27.338Z,6.75
2022-11-24T19:03:56.541Z,5.72
2022-11-24T19:06:31.773Z,4.30
2022-11-24T19:08:59.853Z,4.30
2022-11-24T19:11:35.201Z,9.15
2022-11-24T19:14:07.619Z,7.53
2022-11-24T19:16:34.941Z,3.08
2022-11-24T19:19:02.817Z,5.35
2022-11-24T19:21:34.091Z,4.72
2022-11-24T19:24:04.811Z,4.78
2022-11-24T19:26:32.097Z,5.57
2022-11-24T19:28:58.626Z,4.93
2022-11-24T19:31:25.416Z,4.05
2022-11-24T19:33:54.080Z,4.50
2022-11-24T19:36:21.969Z,5.32
2022-11-24T19:38:53.560Z,4.68
2022-11-24T19:41:23.793Z,6.38
2022-11-24T19:43:53.263Z,6.65
2022-11-24T19:46:20.521Z,4.85
2022-11-24T19:48:54.104Z,6.32
2022-11-24T19:51:22.913Z,8.95
2022-11-24T19:53:49.480Z,5.72
2022-11-24T19:56:21.716Z,4.90
2022-11-24T19:58:49.383Z,5.45
2022-11-24T20:01:30.424Z,4.57
2022-11-24T20:04:00.234Z,4.60
2022-11-24T20:06:28.888Z,4.68
2022-11-24T20:08:58.552Z,3.63
2022-11-24T20:11:25.374Z,5.13
2022-11-24T20:13:51.962Z,4.18
2022-11-24T20:16:21.044Z,5.05
2022-11-24T20:18:47.913Z,5.90
2022-11-24T20:21:18.953Z,4.22
2022-11-24T20:23:53.960Z,4.68
2022-11-24T20:26:22.991Z,3.78
2022-11-24T20:28:52.987Z,4.10
2022-11-24T20:31:22.768Z,3.90
2022-11-24T20:33:49.549Z,5.85
2022-11-24T20:36:21.914Z,5.07
2022-11-24T20:38:49.809Z,5.40
2022-11-24T20:41:20.887Z,5.22
2022-11-24T20:43:48.040Z,6.70
2022-11-24T20:46:18.339Z,7.00
2022-11-24T20:48:46.252Z,5.38
2022-11-24T20:51:21.417Z,5.43
2022-11-24T20:53:49.766Z,7.63
2022-11-24T20:56:18.847Z,5.32
2022-11-24T20:58:45.441Z,4.63
2022-11-24T21:01:15.053Z,3.97
2022-11-24T21:03:43.510Z,3.88
2022-11-24T21:06:12.083Z,4.82
2022-11-24T21:09:03.477Z,5.45
2022-11-24T21:11:32.351Z,4.97
2022-11-24T21:13:59.593Z,3.65
2022-11-24T21:16:39.325Z,4.68
2022-11-24T21:19:09.537Z,4.35
2022-11-24T21:21:37.252Z,7.63
2022-11-24T21:24:06.086Z,3.50
2022-11-24T21:26:36.932Z,3.78
2022-11-24T21:29:04.164Z,4.07
2022-11-24T21:31:30.857Z,3.55
2022-11-24T21:33:57.515Z,3.80
2022-11-24T21:36:26.339Z,4.35
2022-11-24T21:38:55.238Z,3.55
2022-11-24T21:41:23.240Z,4.07
2022-11-24T21:43:50.086Z,3.50
2022-11-24T21:46:17.047Z,3.78
2022-11-24T21:48:44.237Z,4.07
2022-11-24T21:51:13.768Z,3.65
2022-11-24T21:53:41.045Z,3.33
2022-11-24T21:56:13.093Z,3.22
2022-11-24T21:58:47.569Z,4.18
2022-11-24T22:01:15.260Z,3.50
2022-11-24T22:03:41.843Z,3.22
2022-11-24T22:06:09.331Z,4.50
2022-11-24T22:08:35.888Z,2.80
2022-11-24T22:11:13.352Z,3.58
2022-11-24T22:13:40.969Z,4.15
2022-11-24T22:16:10.218Z,3.20
2022-11-24T22:18:38.806Z,2.85
2022-11-24T22:21:07.052Z,4.40
2022-11-24T22:23:34.776Z,4.80
2022-11-24T22:26:06.630Z,7.07
2022-11-24T22:28:35.147Z,4.93
2022-11-24T22:31:10.712Z,3.97
2022-11-24T22:33:37.363Z,3.50
2022-11-24T22:36:04.393Z,5.13
2022-11-24T22:38:32.220Z,4.45
2022-11-24T22:41:10.950Z,3.97
2022-11-24T22:43:39.032Z,4.40
2022-11-24T22:46:14.207Z,4.32
2022-11-24T22:48:41.330Z,4.15
2022-11-24T22:51:12.727Z,5.07
2022-11-24T22:53:41.279Z,4.47
2022-11-24T22:56:10.450Z,4.88
2022-11-24T22:58:38.592Z,4.18
2022-11-24T23:01:05.348Z,3.75
2022-11-24T23:03:33.334Z,4.72
2022-11-24T23:06:04.772Z,3.70
2022-11-24T23:08:34.473Z,3.92
2022-11-24T23:11:03.023Z,3.30
2022-11-24T23:13:30.145Z,4.70
2022-11-24T23:16:07.495Z,6.47
2022-11-24T23:18:34.746Z,6.13
2022-11-24T23:21:12.011Z,3.88
2022-11-24T23:23:38.982Z,3.97
2022-11-24T23:26:08.302Z,3.97
2022-11-24T23:28:34.870Z,4.30
2022-11-24T23:31:06.989Z,6.13
2022-11-24T23:33:34.273Z,3.85
2022-11-24T23:36:11.309Z,4.00
2022-11-24T23:38:39.268Z,3.50
2022-11-24T23:41:09.972Z,3.65
2022-11-24T23:43:38.593Z,4.10
2022-11-24T23:46:22.774Z,3.75
2022-11-24T23:48:51.202Z,3.10
2022-11-24T23:51:18.618Z,4.32
2022-11-24T23:53:45.534Z,3.72
2022-11-24T23:56:14.487Z,4.00
2022-11-24T23:58:41.446Z,3.33
